Time;durP1;ratioP1;P1;durP2;ratioP2;P2;SDS_P1;SDS_P2;PMS_P1;PMS_P2;Temp;Humidity;BMP_temperature;BMP_pressure;BME280_temperature;BME280_humidity;BME280_pressure;Samples;Min_cycle;Max_cycle;Signal;HPM_P1;HPM_P2
2021/12/22 00:01:29;;;;;;;36.67;21.10;;;;;;;-1.54;100.00;102654.63;5094756;28;20028;-36
2021/12/22 00:03:55;;;;;;;42.17;21.47;;;;;;;-1.45;100.00;102654.00;5094906;28;20048;-35
2021/12/22 00:06:24;;;;;;;40.60;22.40;;;;;;;-1.46;100.00;102649.63;5092738;28;20044;-35
2021/12/22 00:08:50;;;;;;;39.03;21.55;;;;;;;-1.46;100.00;102644.34;5094995;28;20440;-35
2021/12/22 00:11:17;;;;;;;48.47;23.67;;;;;;;-1.66;100.00;102613.03;5094381;28;20032;-36
2021/12/22 00:13:44;;;;;;;44.50;21.70;;;;;;;-1.84;100.00;102637.25;5094027;28;20036;-35
2021/12/22 00:16:09;;;;;;;;;;;;;;;-1.59;100.00;102649.66;5095471;28;20064;-35
2021/12/22 00:18:35;;;;;;;36.97;20.27;;;;;;;-1.73;100.00;102655.06;5094581;28;19912;-36
2021/12/22 00:21:01;;;;;;;37.80;20.67;;;;;;;-1.63;100.00;102650.81;5094421;28;20032;-36
2021/12/22 00:23:27;;;;;;;45.58;22.65;;;;;;;-1.71;100.00;102661.09;5094410;28;20031;-35
2021/12/22 00:25:52;;;;;;;42.67;21.23;;;;;;;-1.58;100.00;102653.16;5092732;28;20464;-35
2021/12/22 00:28:18;;;;;;;45.43;22.30;;;;;;;-1.73;100.00;102649.75;5093872;28;20043;-35
2021/12/22 00:30:45;;;;;;;40.10;21.40;;;;;;;-1.61;100.00;102648.03;5093856;28;20031;-35
2021/12/22 00:33:12;;;;;;;38.35;20.02;;;;;;;-1.57;100.00;102641.56;5093906;28;20115;-35
2021/12/22 00:35:41;;;;;;;36.40;20.45;;;;;;;-1.65;100.00;102639.47;5094171;28;20032;-35
2021/12/22 00:38:09;;;;;;;39.85;21.95;;;;;;;-1.66;100.00;102621.00;5093876;28;20102;-35
2021/12/22 00:40:35;;;;;;;44.35;22.90;;;;;;;-1.63;100.00;102644.66;5093699;28;20028;-35
2021/12/22 00:43:01;;;;;;;42.60;22.45;;;;;;;-1.85;100.00;102645.31;5093910;28;20020;-35
2021/12/22 00:45:28;;;;;;;43.60;21.27;;;;;;;-1.78;100.00;102651.88;5094523;28;20108;-35
2021/12/22 00:47:55;;;;;;;46.95;21.75;;;;;;;-1.82;100.00;102651.25;5093610;28;20325;-35
2021/12/22 00:50:20;;;;;;;34.22;19.40;;;;;;;-1.75;100.00;102633.13;5093434;28;20119;-35
2021/12/22 00:52:46;;;;;;;41.30;21.05;;;;;;;-1.70;100.00;102627.50;5093394;28;20483;-35
2021/12/22 00:55:16;;;;;;;37.40;20.37;;;;;;;-1.60;100.00;102636.50;5093656;28;20032;-35
2021/12/22 00:57:41;;;;;;;44.15;22.98;;;;;;;-1.73;100.00;102640.97;5094070;28;20024;-35
2021/12/22 01:00:08;;;;;;;36.97;20.17;;;;;;;-1.80;100.00;102637.03;5093841;28;20034;-35
2021/12/22 01:02:33;;;;;;;42.30;21.17;;;;;;;-1.86;100.00;102644.44;5093422;28;20032;-35
2021/12/22 01:04:58;;;;;;;41.23;21.30;;;;;;;-1.95;100.00;102639.81;5093048;28;20504;-35
2021/12/22 01:07:24;;;;;;;41.67;20.83;;;;;;;-1.86;100.00;102656.84;5093180;28;20051;-35
2021/12/22 01:09:49;;;;;;;43.03;22.13;;;;;;;-1.97;100.00;102640.84;5093495;28;20460;-35
2021/12/22 01:12:15;;;;;;;40.67;21.47;;;;;;;-1.90;100.00;102661.53;5093107;28;20035;-35
2021/12/22 01:14:41;;;;;;;43.72;22.13;;;;;;;-2.00;100.00;102657.81;5093925;28;20258;-35
2021/12/22 01:17:10;;;;;;;40.50;20.70;;;;;;;-2.13;100.00;102614.53;5093325;28;20024;-35
2021/12/22 01:19:47;;;;;;;43.47;21.08;;;;;;;-1.94;100.00;102630.03;5093581;28;20388;-35
2021/12/22 01:22:26;;;;;;;;;;;;;;;-1.81;100.00;102641.47;5093933;28;20395;-35
2021/12/22 01:25:03;;;;;;;37.45;20.38;;;;;;;-1.83;100.00;102630.13;5093395;28;19912;-35
2021/12/22 01:27:36;;;;;;;45.13;21.65;;;;;;;-1.90;100.00;102632.38;5093225;28;20028;-35
2021/12/22 01:30:10;;;;;;;45.15;23.23;;;;;;;-2.11;100.00;102636.47;5093978;28;20031;-35
2021/12/22 01:32:36;;;;;;;39.45;20.65;;;;;;;-2.04;100.00;102644.88;5093151;28;20032;-36
2021/12/22 01:35:02;;;;;;;37.35;20.60;;;;;;;-2.13;100.00;102638.41;5093737;28;20111;-35
2021/12/22 01:37:27;;;;;;;40.33;20.27;;;;;;;-2.13;100.00;102649.00;5093176;28;20085;-35
2021/12/22 01:39:52;;;;;;;40.17;21.20;;;;;;;-2.06;100.00;102647.63;5093176;28;20031;-35
2021/12/22 01:42:18;;;;;;;39.13;20.40;;;;;;;-1.90;100.00;102637.69;5093293;28;20297;-35
2021/12/22 01:50:45;;;;;;;44.95;23.20;;;;;;;-2.17;100.00;102636.91;5093812;28;20097;-35
2021/12/22 01:53:19;;;;;;;45.35;22.45;;;;;;;-2.16;100.00;102630.66;5093279;28;20020;-34
2021/12/22 01:55:57;;;;;;;43.70;21.90;;;;;;;-2.34;100.00;102609.75;5093414;28;20024;-35
2021/12/22 01:58:33;;;;;;;48.70;22.20;;;;;;;-2.27;100.00;102623.44;5093203;28;20036;-35
2021/12/22 02:01:01;;;;;;;46.08;22.92;;;;;;;-2.30;100.00;102628.94;5093320;28;20035;-35
2021/12/22 02:03:26;;;;;;;40.35;21.70;;;;;;;-2.39;100.00;102619.81;5092948;28;20055;-35
2021/12/22 02:05:52;;;;;;;45.35;23.98;;;;;;;-2.44;100.00;102637.81;5093460;28;20036;-35
2021/12/22 02:08:17;;;;;;;45.03;22.00;;;;;;;-2.52;98.86;102633.97;5093115;28;20107;-35
2021/12/22 02:10:47;;;;;;;41.57;21.73;;;;;;;-2.44;100.00;102645.78;5092857;28;20043;-35
2021/12/22 02:13:17;;;;;;;39.35;19.52;;;;;;;-2.23;100.00;102640.81;5092800;28;20412;-35
2021/12/22 02:15:43;;;;;;;48.78;23.08;;;;;;;-2.50;100.00;102632.06;5092451;28;20032;-35
2021/12/22 02:18:15;;;;;;;44.00;21.42;;;;;;;-2.26;100.00;102642.81;5092733;28;20031;-35
2021/12/22 02:20:40;;;;;;;42.13;20.65;;;;;;;-2.24;100.00;102644.44;5093504;28;20024;-35
2021/12/22 02:23:05;;;;;;;41.53;21.93;;;;;;;-2.40;100.00;102623.41;5092707;28;20024;-35
2021/12/22 02:25:36;;;;;;;37.73;20.83;;;;;;;-2.10;100.00;102648.78;5092944;28;20055;-35
2021/12/22 02:28:04;;;;;;;44.78;21.88;;;;;;;-2.13;100.00;102638.41;5092968;28;20092;-35
2021/12/22 02:30:32;;;;;;;46.78;24.33;;;;;;;-2.29;100.00;102637.72;5093156;28;20024;-35
2021/12/22 02:33:21;;;;;;;45.28;23.63;;;;;;;-2.33;100.00;102645.91;5092600;28;20043;-35
2021/12/22 02:36:09;;;;;;;41.90;22.02;;;;;;;-2.36;100.00;102645.25;5092345;28;20028;-35
2021/12/22 02:38:44;;;;;;;42.88;21.45;;;;;;;-2.38;100.00;102658.59;5096472;28;20031;-35
2021/12/22 02:41:13;;;;;;;36.92;19.40;;;;;;;-2.19;100.00;102646.78;5096618;28;20384;-35
2021/12/22 02:43:45;;;;;;;46.60;20.80;;;;;;;-2.17;100.00;102644.84;5096109;28;20043;-35
2021/12/22 02:46:12;;;;;;;45.15;22.08;;;;;;;-2.48;100.00;102628.38;5096142;28;20118;-35
2021/12/22 02:48:38;;;;;;;37.17;20.15;;;;;;;-2.23;100.00;102640.81;5096057;28;20034;-35
2021/12/22 02:51:03;;;;;;;40.22;21.25;;;;;;;-2.20;100.00;102629.16;5096237;28;20039;-35
2021/12/22 02:53:39;;;;;;;40.20;21.53;;;;;;;-2.30;100.00;102633.38;5095903;28;20028;-35
2021/12/22 02:56:57;;;;;;;41.88;20.55;;;;;;;-2.47;100.00;102630.06;5096357;28;20107;-35
2021/12/22 03:06:17;;;;;;;35.77;19.40;;;;;;;-2.37;100.00;102632.97;5095773;28;20107;-34
2021/12/22 03:08:43;;;;;;;41.85;21.67;;;;;;;-2.41;100.00;102650.00;5096534;28;20036;-35
2021/12/22 03:11:08;;;;;;;46.97;22.73;;;;;;;-2.46;100.00;102652.13;5095639;28;20482;-35
2021/12/22 03:13:33;;;;;;;46.10;22.03;;;;;;;-2.55;100.00;102631.53;5095891;28;20028;-34
2021/12/22 03:15:59;;;;;;;43.87;21.50;;;;;;;-2.61;100.00;102635.44;5095158;28;20031;-35
2021/12/22 03:18:24;;;;;;;41.20;20.60;;;;;;;-2.45;100.00;102652.00;5096111;28;20031;-35
2021/12/22 03:21:01;;;;;;;42.17;21.57;;;;;;;-2.36;100.00;102638.13;5095979;28;20070;-35
2021/12/22 03:23:27;;;;;;;41.72;20.58;;;;;;;-2.26;100.00;102656.06;5095885;28;20024;-35
2021/12/22 03:25:53;;;;;;;39.80;20.90;;;;;;;-2.24;100.00;102654.19;5095928;28;20090;-35
2021/12/22 03:28:18;;;;;;;46.50;21.13;;;;;;;-2.29;100.00;102640.38;5095547;28;20027;-35
2021/12/22 03:30:43;;;;;;;40.83;22.43;;;;;;;-2.50;100.00;102638.22;5095284;28;20084;-35
2021/12/22 03:33:09;;;;;;;38.37;20.77;;;;;;;-2.32;100.00;102657.34;5094811;28;20119;-35
2021/12/22 03:35:35;;;;;;;38.10;20.07;;;;;;;-2.39;100.00;102661.34;5095158;28;20024;-35
2021/12/22 03:38:01;;;;;;;;;;;;;;;-2.27;100.00;102663.19;5095415;28;20031;-35
2021/12/22 03:40:27;;;;;;;38.80;19.10;;;;;;;-2.35;100.00;102671.63;5095037;28;20046;-35
2021/12/22 03:42:53;;;;;;;;;;;;;;;-2.27;100.00;102659.69;5095422;28;20043;-35
2021/12/22 03:45:18;;;;;;;37.88;18.42;;;;;;;-2.37;100.00;102639.09;5095026;28;19916;-35
2021/12/22 03:47:44;;;;;;;44.25;21.23;;;;;;;-2.50;100.00;102640.00;5094395;28;20020;-35
2021/12/22 03:50:13;;;;;;;40.38;18.98;;;;;;;-2.39;100.00;102656.91;5094863;28;20020;-35
2021/12/22 03:52:39;;;;;;;37.15;18.88;;;;;;;-2.40;100.00;102646.41;5095316;28;20039;-34
2021/12/22 03:55:06;;;;;;;44.15;20.48;;;;;;;-2.35;100.00;102641.63;5095049;28;20070;-35
2021/12/22 03:57:31;;;;;;;40.42;19.50;;;;;;;-2.38;100.00;102641.88;5094617;28;20042;-35
2021/12/22 03:59:58;;;;;;;44.37;21.50;;;;;;;-2.48;100.00;102631.03;5094735;28;20452;-34
2021/12/22 04:02:25;;;;;;;42.63;20.20;;;;;;;-2.53;100.00;102646.38;5094734;28;20028;-35
2021/12/22 04:04:51;;;;;;;36.90;18.92;;;;;;;-2.68;100.00;102635.00;5095457;28;20044;-35
2021/12/22 04:07:18;;;;;;;36.60;19.52;;;;;;;-2.57;100.00;102636.09;5094752;28;20024;-35
2021/12/22 04:09:43;;;;;;;39.10;19.30;;;;;;;-2.42;100.00;102624.47;5094486;28;20461;-35
2021/12/22 04:12:09;;;;;;;45.33;20.57;;;;;;;-2.40;100.00;102644.59;5095101;28;20057;-35
2021/12/22 04:14:35;;;;;;;36.67;18.75;;;;;;;-2.36;100.00;102634.66;5093984;28;20092;-35
2021/12/22 04:17:00;;;;;;;40.07;20.63;;;;;;;-2.43;100.00;102649.28;5094200;28;20031;-35
2021/12/22 04:19:26;;;;;;;39.47;18.93;;;;;;;-2.53;100.00;102633.13;5095072;28;20059;-34
2021/12/22 04:21:51;;;;;;;31.50;18.43;;;;;;;-2.51;100.00;102644.47;5094433;28;20028;-35
2021/12/22 04:24:18;;;;;;;38.53;18.60;;;;;;;-2.51;100.00;102641.81;5094204;28;20069;-35
2021/12/22 04:26:43;;;;;;;37.83;20.27;;;;;;;-2.44;100.00;102647.53;5094259;28;20051;-35
2021/12/22 04:29:12;;;;;;;37.53;18.80;;;;;;;-2.50;100.00;102616.16;5094345;28;20024;-35
2021/12/22 04:31:39;;;;;;;39.67;20.10;;;;;;;-2.45;100.00;102617.56;5093673;28;20058;-35
2021/12/22 04:34:08;;;;;;;;;;;;;;;-2.38;100.00;102626.81;5094735;28;20068;-35
2021/12/22 04:36:34;;;;;;;36.95;18.30;;;;;;;-2.54;100.00;102618.16;5094155;28;20003;-34
2021/12/22 04:39:00;;;;;;;35.58;18.90;;;;;;;-2.41;100.00;102628.81;5094138;28;20365;-35
2021/12/22 04:41:26;;;;;;;41.03;21.40;;;;;;;-2.41;100.00;102624.34;5093777;28;20098;-35
2021/12/22 04:43:52;;;;;;;37.40;18.15;;;;;;;-2.41;100.00;102619.06;5092910;28;20043;-35
2021/12/22 04:46:20;;;;;;;37.88;19.02;;;;;;;-2.47;100.00;102619.47;5093555;28;20434;-34
2021/12/22 04:48:45;;;;;;;40.47;18.60;;;;;;;-2.62;100.00;102620.50;5094552;28;20363;-34
2021/12/22 04:51:23;;;;;;;37.90;17.90;;;;;;;-2.56;100.00;102613.94;5093647;28;20028;-35
2021/12/22 04:53:57;;;;;;;33.30;18.13;;;;;;;-2.58;100.00;102611.41;5093638;28;20522;-35
2021/12/22 04:56:22;;;;;;;36.83;18.75;;;;;;;-2.67;100.00;102614.66;5094151;28;20030;-35
2021/12/22 04:58:48;;;;;;;42.77;18.37;;;;;;;-2.68;100.00;102602.38;5093895;28;20111;-35
2021/12/22 05:01:13;;;;;;;38.40;18.67;;;;;;;-2.61;100.00;102598.34;5091758;28;20028;-35
2021/12/22 05:03:42;;;;;;;41.45;19.27;;;;;;;-2.64;100.00;102617.09;5093594;28;20519;-35
2021/12/22 05:06:07;;;;;;;37.47;18.52;;;;;;;-2.58;100.00;102608.75;5093497;28;20077;-44
2021/12/22 05:08:33;;;;;;;35.58;17.67;;;;;;;-2.79;100.00;102579.22;5093394;28;20032;-35
2021/12/22 05:10:58;;;;;;;40.77;18.60;;;;;;;-2.63;100.00;102610.88;5092353;28;20120;-35
2021/12/22 05:13:23;;;;;;;32.03;17.87;;;;;;;-2.67;100.00;102588.19;5093789;28;20032;-35
2021/12/22 05:15:51;;;;;;;38.70;18.43;;;;;;;-2.76;100.00;102607.31;5093897;28;20460;-35
2021/12/22 05:20:44;;;;;;;42.70;19.83;;;;;;;-2.81;100.00;102606.78;5093659;28;20060;-35
2021/12/22 05:23:10;;;;;;;31.40;17.23;;;;;;;-2.68;100.00;102608.53;5093415;28;20427;-35
2021/12/22 05:25:35;;;;;;;34.20;17.67;;;;;;;-2.81;100.00;102609.41;5092988;28;20369;-35
2021/12/22 05:28:00;;;;;;;33.83;17.10;;;;;;;-2.63;100.00;102602.91;5093246;28;20032;-34
2021/12/22 05:30:26;;;;;;;40.40;19.27;;;;;;;-2.80;100.00;102603.16;5093283;28;20115;-34
2021/12/22 05:32:54;;;;;;;32.50;16.93;;;;;;;-2.89;100.00;102604.63;5092930;28;20028;-35
2021/12/22 05:35:20;;;;;;;33.47;17.48;;;;;;;-2.96;100.00;102590.94;5093692;28;20367;-34
2021/12/22 05:37:45;;;;;;;37.65;18.23;;;;;;;-3.00;100.00;102600.03;5093862;28;20024;-35
2021/12/22 05:40:10;;;;;;;33.63;17.60;;;;;;;-2.95;100.00;102605.88;5093368;28;20085;-34
2021/12/22 05:42:37;;;;;;;35.23;17.27;;;;;;;-2.81;100.00;102596.19;5092968;28;20115;-35
2021/12/22 05:45:03;;;;;;;30.65;15.73;;;;;;;-2.89;100.00;102586.09;5093401;28;20058;-34
2021/12/22 05:47:28;;;;;;;30.75;16.40;;;;;;;-2.69;100.00;102592.72;5092682;28;20032;-34
2021/12/22 05:49:54;;;;;;;34.00;17.23;;;;;;;-2.84;100.00;102597.22;5093752;28;20035;-34
2021/12/22 05:52:19;;;;;;;30.03;15.93;;;;;;;-2.68;100.00;102581.19;5093461;28;20144;-34
2021/12/22 05:54:45;;;;;;;31.70;16.77;;;;;;;-3.08;100.00;102556.47;5093553;28;20098;-34
2021/12/22 05:57:11;;;;;;;34.47;16.75;;;;;;;-2.83;100.00;102583.06;5093133;28;20072;-34
2021/12/22 05:59:36;;;;;;;31.60;16.03;;;;;;;-2.73;100.00;102573.56;5093013;28;20199;-34
2021/12/22 06:02:02;;;;;;;31.77;16.83;;;;;;;-2.89;100.00;102583.44;5093342;28;20282;-34
2021/12/22 06:04:27;;;;;;;36.67;17.73;;;;;;;-2.85;100.00;102582.28;5091498;28;20044;-34
2021/12/22 06:06:52;;;;;;;29.53;14.90;;;;;;;-2.73;100.00;102576.19;5104309;28;20391;-34
2021/12/22 06:09:18;;;;;;;35.37;16.07;;;;;;;-2.70;100.00;102583.91;5112519;28;20588;-34
2021/12/22 06:11:43;;;;;;;40.23;16.13;;;;;;;-2.74;100.00;102557.75;5115970;28;20035;-34
2021/12/22 06:14:08;;;;;;;38.60;17.03;;;;;;;-2.70;100.00;102572.47;5116761;28;20112;-34
2021/12/22 06:16:34;;;;;;;30.00;15.47;;;;;;;-2.61;100.00;102572.72;5116998;28;20077;-34
2021/12/22 06:19:03;;;;;;;33.77;16.33;;;;;;;-2.67;100.00;102590.81;5117214;28;20027;-34
2021/12/22 06:21:31;;;;;;;30.40;15.45;;;;;;;-2.71;100.00;102586.69;5117058;28;20039;-34
2021/12/22 06:23:57;;;;;;;32.75;15.80;;;;;;;-2.88;100.00;102588.66;5117106;28;20088;-35
2021/12/22 06:26:23;;;;;;;26.40;15.05;;;;;;;-2.82;100.00;102584.75;5117069;27;20024;-34
2021/12/22 06:28:48;;;;;;;32.10;16.38;;;;;;;-2.98;100.00;102561.06;5117483;28;20038;-34
2021/12/22 06:31:13;;;;;;;36.57;15.93;;;;;;;-2.73;100.00;102594.72;5116765;27;20479;-34
2021/12/22 06:33:39;;;;;;;28.97;14.30;;;;;;;-3.03;100.00;102562.31;5116876;28;20020;-34
2021/12/22 06:36:05;;;;;;;28.50;15.00;;;;;;;-2.78;100.00;102591.53;5116637;28;20502;-35
2021/12/22 06:38:30;;;;;;;28.02;15.30;;;;;;;-2.76;100.00;102589.63;5116600;28;20047;-35
2021/12/22 06:40:56;;;;;;;32.23;14.50;;;;;;;-2.65;100.00;102594.22;5116754;28;20027;-34
2021/12/22 06:43:21;;;;;;;30.55;15.70;;;;;;;-2.73;100.00;102593.84;5116681;28;20364;-34
2021/12/22 06:45:47;;;;;;;35.13;17.70;;;;;;;-2.69;100.00;102595.34;5116739;28;20519;-34
2021/12/22 06:48:12;;;;;;;35.27;18.73;;;;;;;-2.72;100.00;102606.19;5116560;28;20103;-35
2021/12/22 06:50:37;;;;;;;43.23;21.30;;;;;;;-2.80;100.00;102608.47;5116652;28;20023;-35
2021/12/22 06:53:03;;;;;;;30.70;17.67;;;;;;;-2.72;100.00;102612.31;5116617;28;20027;-34
2021/12/22 06:55:28;;;;;;;37.73;20.50;;;;;;;-2.64;100.00;102604.69;5116118;28;20027;-34
2021/12/22 06:57:55;;;;;;;35.73;18.57;;;;;;;-2.56;100.00;102596.25;5115031;28;20036;-35
2021/12/22 07:00:20;;;;;;;;;;;;;;;-2.55;100.00;102597.09;5116396;28;20055;-35
2021/12/22 07:02:45;;;;;;;26.73;14.47;;;;;;;-2.50;100.00;102601.13;5115824;28;19973;-34
2021/12/22 07:05:11;;;;;;;30.53;16.13;;;;;;;-2.78;100.00;102601.25;5116925;28;20054;-34
2021/12/22 07:07:38;;;;;;;31.35;15.20;;;;;;;-2.76;100.00;102608.16;5115675;28;20028;-34
2021/12/22 07:10:07;;;;;;;25.67;14.70;;;;;;;-2.63;100.00;102600.28;5116003;28;20383;-34
2021/12/22 07:12:34;;;;;;;29.38;14.18;;;;;;;-2.68;100.00;102597.94;5115634;28;20023;-35
2021/12/22 07:15:03;;;;;;;28.45;14.45;;;;;;;-2.57;100.00;102602.50;5115995;28;20455;-35
2021/12/22 07:17:28;;;;;;;25.90;14.02;;;;;;;-2.79;100.00;102584.53;5115814;28;20467;-35
2021/12/22 07:19:53;;;;;;;31.33;15.60;;;;;;;-2.89;100.00;102583.44;5115859;28;20118;-35
2021/12/22 07:22:19;;;;;;;28.60;16.43;;;;;;;-2.75;100.00;102601.06;5114639;28;20028;-35
2021/12/22 07:24:44;;;;;;;28.47;14.30;;;;;;;-2.78;100.00;102580.06;5115420;28;20387;-34
2021/12/22 07:27:09;;;;;;;31.67;15.40;;;;;;;-2.89;100.00;102589.56;5116107;28;20175;-34
2021/12/22 07:29:35;;;;;;;34.03;16.10;;;;;;;-2.95;100.00;102595.28;5115936;28;20072;-34
2021/12/22 07:32:00;;;;;;;28.10;14.57;;;;;;;-2.90;100.00;102581.75;5115810;28;20034;-35
2021/12/22 07:34:37;;;;;;;30.63;15.27;;;;;;;-2.88;100.00;102591.31;5115662;28;20070;-35
2021/12/22 07:37:31;;;;;;;24.15;13.55;;;;;;;-2.89;100.00;102584.28;5115548;27;20027;-35
2021/12/22 07:39:56;;;;;;;29.23;14.55;;;;;;;-2.91;100.00;102588.00;5115696;28;20020;-35
2021/12/22 07:42:22;;;;;;;26.80;14.75;;;;;;;-2.89;100.00;102594.03;5115315;28;20343;-35
2021/12/22 07:44:47;;;;;;;26.07;13.63;;;;;;;-2.73;100.00;102593.84;5115456;28;20036;-35
2021/12/22 07:47:12;;;;;;;31.07;15.37;;;;;;;-2.84;100.00;102589.28;5115412;28;20357;-35
2021/12/22 07:49:38;;;;;;;28.97;16.00;;;;;;;-2.73;100.00;102599.16;5115291;28;20100;-35
2021/12/22 07:52:04;;;;;;;24.77;14.50;;;;;;;-2.83;100.00;102592.78;5115259;28;20110;-35
2021/12/22 07:54:29;;;;;;;25.73;13.57;;;;;;;-2.85;100.00;102590.22;5115199;28;20031;-35
2021/12/22 07:56:55;;;;;;;26.87;14.47;;;;;;;-3.03;100.00;102584.34;5114910;28;20080;-35
2021/12/22 07:59:20;;;;;;;25.23;13.50;;;;;;;-2.80;100.00;102576.69;5115474;28;20026;-35
2021/12/22 08:01:45;;;;;;;25.53;13.53;;;;;;;-2.76;100.00;102586.97;5115536;28;20022;-34
2021/12/22 08:04:11;;;;;;;23.90;13.07;;;;;;;-2.67;100.00;102577.59;5115166;28;20127;-34
2021/12/22 08:06:36;;;;;;;25.47;14.37;;;;;;;-2.86;100.00;102592.03;5114662;28;20028;-35
2021/12/22 08:09:03;;;;;;;24.77;12.57;;;;;;;-3.02;100.00;102580.75;5115045;28;20028;-35
2021/12/22 08:11:29;;;;;;;22.42;13.07;;;;;;;-2.83;100.00;102588.34;5115083;28;20023;-35
2021/12/22 08:13:54;;;;;;;24.13;13.73;;;;;;;-3.02;100.00;102570.19;5114585;28;20098;-35
2021/12/22 08:16:19;;;;;;;25.97;12.80;;;;;;;-2.97;100.00;102580.47;5115069;28;20028;-35
2021/12/22 08:18:45;;;;;;;23.30;12.83;;;;;;;-3.00;100.00;102575.34;5115054;28;20024;-36
2021/12/22 08:21:10;;;;;;;25.37;13.53;;;;;;;-2.94;100.00;102591.69;5114622;28;20027;-35
2021/12/22 08:23:36;;;;;;;24.07;12.80;;;;;;;-2.89;100.00;102580.78;5114772;28;20046;-35
2021/12/22 08:26:01;;;;;;;31.20;15.50;;;;;;;-2.95;100.00;102583.84;5114491;28;20076;-35
2021/12/22 08:28:27;;;;;;;26.90;14.95;;;;;;;-2.88;100.00;102588.66;5114254;28;20102;-35
2021/12/22 08:30:52;;;;;;;27.10;13.37;;;;;;;-2.80;100.00;102592.56;5114839;28;20034;-35
2021/12/22 08:33:22;;;;;;;37.17;14.60;;;;;;;-2.88;100.00;102593.06;5114217;28;20100;-35
2021/12/22 08:38:51;;;;;;;26.52;14.07;;;;;;;-2.88;100.00;102585.13;5114915;28;20442;-35
2021/12/22 08:41:29;;;;;;;22.73;12.45;;;;;;;-2.85;100.00;102569.06;5115080;28;20035;-35
2021/12/22 08:43:57;;;;;;;26.98;12.93;;;;;;;-2.58;100.00;102590.22;5114029;28;20036;-35
2021/12/22 08:46:24;;;;;;;27.67;12.60;;;;;;;-2.67;100.00;102577.59;5113952;28;20110;-35
2021/12/22 08:48:49;;;;;;;20.23;11.00;;;;;;;-2.67;100.00;102567.00;5114472;28;20063;-35
2021/12/22 08:51:15;;;;;;;18.57;10.93;;;;;;;-2.68;100.00;102573.25;5114159;28;20400;-35
2021/12/22 08:53:42;;;;;;;22.87;12.13;;;;;;;-2.59;100.00;102577.91;5113838;28;20406;-35
2021/12/22 08:56:07;;;;;;;25.52;12.00;;;;;;;-2.54;100.00;102581.09;5114043;28;20032;-35
2021/12/22 08:58:34;;;;;;;17.40;10.47;;;;;;;-2.63;100.00;102566.69;5114553;28;20096;-35
2021/12/22 09:00:59;;;;;;;19.27;10.98;;;;;;;-2.65;100.00;102579.16;5114073;28;20105;-35
2021/12/22 09:03:25;;;;;;;23.77;11.73;;;;;;;-2.68;99.81;102571.44;5113803;28;20075;-35
2021/12/22 09:05:51;;;;;;;;;;;;;;;-2.51;100.00;102583.53;5114675;28;20067;-35
2021/12/22 09:08:16;;;;;;;24.87;11.00;;;;;;;-2.60;99.22;102584.16;5113632;28;19919;-35
2021/12/22 09:10:42;;;;;;;22.03;10.20;;;;;;;-2.52;99.50;102579.19;5113948;28;20020;-35
2021/12/22 09:13:07;;;;;;;20.90;11.03;;;;;;;-2.56;99.69;102580.34;5113829;28;20027;-35
2021/12/22 09:15:32;;;;;;;19.17;9.80;;;;;;;-2.50;98.35;102579.94;5114585;28;20035;-35
2021/12/22 09:17:58;;;;;;;24.07;11.40;;;;;;;-2.49;97.78;102580.78;5113428;28;20032;-35
2021/12/22 09:20:23;;;;;;;23.60;11.57;;;;;;;-2.52;98.46;102581.84;5113499;28;20166;-35
2021/12/22 09:22:49;;;;;;;16.60;9.87;;;;;;;-2.47;98.65;102578.88;5113581;28;20111;-35
2021/12/22 09:25:14;;;;;;;23.77;11.60;;;;;;;-2.47;98.26;102573.59;5113825;28;20030;-35
2021/12/22 09:27:39;;;;;;;22.63;11.17;;;;;;;-2.39;99.14;102582.72;5113266;28;20026;-35
2021/12/22 09:30:07;;;;;;;20.60;11.33;;;;;;;-2.39;98.89;102572.13;5114421;28;20023;-35
2021/12/22 09:32:32;;;;;;;24.48;12.35;;;;;;;-2.25;98.72;102588.88;5113535;28;20065;-35
2021/12/22 09:34:58;;;;;;;19.73;11.02;;;;;;;-2.18;99.47;102563.66;5114466;28;20458;-35
2021/12/22 09:37:23;;;;;;;17.48;10.15;;;;;;;-2.18;98.91;102577.75;5113302;28;20566;-35
2021/12/22 09:39:49;;;;;;;19.97;10.00;;;;;;;-2.10;98.58;102572.78;5114341;28;20055;-35
2021/12/22 09:42:15;;;;;;;19.25;9.55;;;;;;;-1.96;98.69;102578.91;5113116;28;20395;-35
2021/12/22 09:44:45;;;;;;;19.87;10.40;;;;;;;-1.91;99.21;102569.66;5113483;28;20028;-35
2021/12/22 09:47:12;;;;;;;22.73;10.65;;;;;;;-1.95;97.65;102576.16;5115862;28;20020;-35
2021/12/22 09:52:21;;;;;;;21.08;10.48;;;;;;;-1.82;97.23;102573.47;5118105;28;20456;-35
2021/12/22 09:54:50;;;;;;;17.20;9.55;;;;;;;-1.75;97.70;102573.91;5117810;28;20035;-35
2021/12/22 09:57:17;;;;;;;20.52;9.88;;;;;;;-1.57;99.35;102567.28;5118211;27;20408;-35
2021/12/22 09:59:48;;;;;;;16.75;10.07;;;;;;;-1.58;98.30;102563.78;5118268;28;20059;-35
2021/12/22 10:02:15;;;;;;;19.88;10.70;;;;;;;-1.53;97.54;102566.09;5117805;28;20031;-35
2021/12/22 10:04:41;;;;;;;17.92;10.80;;;;;;;-1.54;96.84;102547.66;5117691;28;20047;-35
2021/12/22 10:07:08;;;;;;;21.48;11.75;;;;;;;-1.41;97.49;102573.19;5117303;27;20058;-35
2021/12/22 10:09:45;;;;;;;32.67;15.00;;;;;;;-1.42;97.06;102573.28;5117440;28;20023;-36
2021/12/22 10:12:15;;;;;;;;;;;;;;;-1.30;97.37;102570.63;5118434;28;20111;-35
2021/12/22 10:14:52;;;;;;;31.30;17.52;;;;;;;-1.35;97.34;102569.25;5117154;28;19911;-35
2021/12/22 10:17:39;;;;;;;26.10;13.68;;;;;;;-1.40;96.25;102568.75;5117038;28;20531;-35
2021/12/22 10:20:13;;;;;;;19.60;11.18;;;;;;;-1.39;97.12;102562.47;5117004;28;20068;-35
2021/12/22 10:22:50;;;;;;;15.13;9.75;;;;;;;-1.17;98.74;102556.44;5116873;28;20031;-35
2021/12/22 10:25:20;;;;;;;21.20;11.65;;;;;;;-1.18;97.98;102558.25;5116705;28;20024;-35
2021/12/22 10:27:57;;;;;;;16.55;9.77;;;;;;;-1.04;98.51;102551.91;5117214;28;20387;-35
2021/12/22 10:30:42;;;;;;;19.38;9.23;;;;;;;-1.00;97.78;102558.69;5117257;28;20031;-35
2021/12/22 10:33:20;;;;;;;15.45;8.10;;;;;;;-0.92;97.56;102560.81;5115907;28;20035;-35
2021/12/22 10:35:48;;;;;;;12.43;8.45;;;;;;;-0.99;99.18;102511.75;5117404;27;20043;-35
2021/12/22 10:38:16;;;;;;;15.38;10.55;;;;;;;-0.81;98.84;102532.47;5116774;28;20023;-35
2021/12/22 10:40:43;;;;;;;16.17;10.43;;;;;;;-0.64;98.20;102538.31;5116351;28;20051;-35
2021/12/22 10:43:20;;;;;;;15.68;9.52;;;;;;;-0.46;98.97;102534.25;5116972;28;20028;-36
2021/12/22 10:45:50;;;;;;;16.35;9.93;;;;;;;-0.72;94.66;102519.47;5116672;28;20016;-35
2021/12/22 10:51:05;;;;;;;13.38;8.65;;;;;;;-0.44;97.13;102524.38;5116815;28;20043;-35
2021/12/22 10:53:30;;;;;;;12.23;8.05;;;;;;;-0.54;97.47;102500.31;5116203;28;20036;-35
2021/12/22 10:55:58;;;;;;;12.60;8.43;;;;;;;-0.62;95.44;102513.31;5116107;28;20020;-35
2021/12/22 10:58:30;;;;;;;13.35;7.43;;;;;;;-0.58;95.02;102524.56;5115056;27;20023;-35
2021/12/22 11:01:08;;;;;;;13.95;7.88;;;;;;;-0.62;94.01;102509.81;5116677;28;20464;-35
2021/12/22 11:03:43;;;;;;;14.05;6.97;;;;;;;-0.41;96.34;102508.16;5116650;28;20031;-35
2021/12/22 11:06:15;;;;;;;14.82;7.65;;;;;;;-0.32;96.18;102509.25;5116587;28;20038;-35
2021/12/22 11:08:40;;;;;;;13.65;8.57;;;;;;;-0.27;95.47;102492.00;5116783;28;20020;-35
2021/12/22 11:11:13;;;;;;;15.43;9.25;;;;;;;-0.24;94.33;102498.91;5116009;27;20038;-35
2021/12/22 11:13:39;;;;;;;13.32;8.68;;;;;;;-0.21;93.74;102487.16;5115930;27;20028;-35
2021/12/22 11:16:10;;;;;;;15.03;8.73;;;;;;;-0.05;93.10;102506.25;5115902;28;20047;-35
2021/12/22 11:18:36;;;;;;;15.50;8.20;;;;;;;0.07;93.84;102497.31;5116064;28;20024;-36
2021/12/22 11:21:22;;;;;;;14.35;8.57;;;;;;;-0.03;93.03;102485.72;5116179;28;20022;-36
2021/12/22 11:23:48;;;;;;;19.42;7.85;;;;;;;0.07;93.87;102492.00;5115458;28;20032;-36
2021/12/22 11:26:15;;;;;;;13.75;7.82;;;;;;;0.29;95.54;102490.25;5115333;27;20032;-35
2021/12/22 11:28:40;;;;;;;12.60;7.55;;;;;;;0.31;93.98;102491.00;5115805;28;20032;-36
2021/12/22 11:31:07;;;;;;;11.30;7.30;;;;;;;0.35;93.13;102484.47;5115490;28;20081;-36
2021/12/22 11:33:33;;;;;;;13.68;6.90;;;;;;;0.54;94.16;102484.66;5115511;28;20051;-36